Time;durP1;ratioP1;P1;durP2;ratioP2;P2;SDS_P1;SDS_P2;PMS_P1;PMS_P2;Temp;Humidity;BMP_temperature;BMP_pressure;BME280_temperature;BME280_humidity;BME280_pressure;Samples;Min_cycle;Max_cycle;Signal;HPM_P1;HPM_P2
2023/06/28 00:00:31;;;;;;;7.57;4.18;;;16.10;99.90;;;;;;5094057;28;20040;-79
2023/06/28 00:02:57;;;;;;;7.15;4.28;;;16.10;99.90;;;;;;5092428;28;20419;-79
2023/06/28 00:05:22;;;;;;;13.13;4.55;;;16.00;99.90;;;;;;5092723;28;20525;-79
2023/06/28 00:07:49;;;;;;;8.15;3.53;;;16.00;99.90;;;;;;5092214;28;20081;-79
2023/06/28 00:10:15;;;;;;;10.38;3.90;;;16.00;99.90;;;;;;5093571;28;20020;-79
2023/06/28 00:12:40;;;;;;;6.90;4.07;;;16.00;99.90;;;;;;5093564;28;20024;-79
2023/06/28 00:15:07;;;;;;;14.63;6.90;;;16.00;99.90;;;;;;5092061;28;20371;-79
2023/06/28 00:17:33;;;;;;;14.77;5.50;;;16.00;99.90;;;;;;5092246;28;20032;-79
2023/06/28 00:20:00;;;;;;;9.45;4.75;;;16.00;99.90;;;;;;5092410;28;20165;-79
2023/06/28 00:22:30;;;;;;;20.13;5.38;;;16.00;99.90;;;;;;5093387;28;20031;-79
2023/06/28 00:24:57;;;;;;;9.35;4.40;;;16.00;99.90;;;;;;5089307;28;20036;-79
2023/06/28 00:27:23;;;;;;;13.45;4.68;;;16.00;99.90;;;;;;5091818;28;20024;-79
2023/06/28 00:29:49;;;;;;;8.32;4.47;;;16.00;99.90;;;;;;5092210;28;20080;-79
2023/06/28 00:32:15;;;;;;;10.20;4.57;;;16.10;99.90;;;;;;5091679;28;20028;-79
2023/06/28 00:34:41;;;;;;;14.05;4.53;;;16.00;99.90;;;;;;5092686;28;20028;-79
2023/06/28 00:37:07;;;;;;;9.90;3.78;;;16.10;99.90;;;;;;5093389;28;20031;-79
2023/06/28 00:39:34;;;;;;;6.28;4.00;;;16.10;99.90;;;;;;5093384;28;20393;-79
2023/06/28 00:42:01;;;;;;;11.40;4.00;;;16.00;99.90;;;;;;5093450;28;20097;-79
2023/06/28 00:44:26;;;;;;;7.40;4.15;;;16.00;99.90;;;;;;5093731;28;20040;-79
2023/06/28 00:46:54;;;;;;;13.43;3.90;;;16.00;99.90;;;;;;5092845;28;20024;-79
2023/06/28 00:49:20;;;;;;;6.80;4.40;;;16.00;99.90;;;;;;5091943;28;20359;-79
2023/06/28 00:51:46;;;;;;;8.57;4.55;;;16.00;99.90;;;;;;5093403;28;20105;-79
2023/06/28 00:54:12;;;;;;;6.97;4.07;;;16.00;99.90;;;;;;5092902;28;20040;-79
2023/06/28 00:56:39;;;;;;;14.60;4.80;;;16.00;99.90;;;;;;5085070;28;20028;-79
2023/06/28 00:59:05;;;;;;;10.75;4.55;;;16.00;99.90;;;;;;5093352;28;20032;-78
2023/06/28 01:01:31;;;;;;;9.50;4.13;;;16.00;99.90;;;;;;5093009;28;20035;-79
2023/06/28 01:04:00;;;;;;;14.07;4.55;;;16.00;99.90;;;;;;5091506;28;20076;-79
2023/06/28 01:06:35;;;;;;;7.88;4.07;;;16.10;99.90;;;;;;5093495;28;20028;-79
2023/06/28 01:09:07;;;;;;;8.43;4.03;;;16.10;99.90;;;;;;5088924;28;20020;-79
2023/06/28 01:11:37;;;;;;;8.40;3.42;;;16.00;99.90;;;;;;5091511;28;20031;-79
2023/06/28 01:14:04;;;;;;;10.40;4.28;;;16.00;99.90;;;;;;5091659;28;20157;-79
2023/06/28 01:16:31;;;;;;;7.30;3.45;;;16.10;99.90;;;;;;5091696;28;20028;-79
2023/06/28 01:18:56;;;;;;;9.80;4.07;;;16.10;99.90;;;;;;5092474;28;20485;-79
2023/06/28 01:21:25;;;;;;;7.45;3.47;;;16.00;99.90;;;;;;5092925;28;20028;-80
2023/06/28 01:23:51;;;;;;;10.50;4.43;;;16.10;99.90;;;;;;5092713;28;20110;-80
2023/06/28 01:26:17;;;;;;;8.00;3.58;;;16.20;99.90;;;;;;5091790;28;20032;-80
2023/06/28 01:28:44;;;;;;;12.63;3.75;;;16.10;99.90;;;;;;5091399;28;20036;-80
2023/06/28 01:31:11;;;;;;;7.30;4.13;;;16.10;99.90;;;;;;5091270;28;20074;-80
2023/06/28 01:33:42;;;;;;;10.98;4.30;;;16.10;99.90;;;;;;5091640;28;20047;-79
2023/06/28 01:36:11;;;;;;;5.95;3.90;;;16.10;99.90;;;;;;5092603;28;20405;-80
2023/06/28 01:38:39;;;;;;;11.52;4.30;;;16.10;99.90;;;;;;5091616;28;20573;-79
2023/06/28 01:41:06;;;;;;;14.80;4.75;;;16.10;99.90;;;;;;5094840;28;20123;-80
2023/06/28 01:43:33;;;;;;;13.48;4.45;;;16.10;99.90;;;;;;5097312;28;20068;-80
2023/06/28 01:45:58;;;;;;;9.93;4.60;;;16.10;99.90;;;;;;5095575;28;20028;-79
2023/06/28 01:48:25;;;;;;;10.35;4.95;;;16.10;99.90;;;;;;5096851;28;20070;-79
2023/06/28 01:50:52;;;;;;;9.55;4.78;;;16.10;99.90;;;;;;5095736;28;20032;-80
2023/06/28 01:53:18;;;;;;;11.88;5.05;;;16.20;99.90;;;;;;5095239;28;20048;-79
2023/06/28 01:55:44;;;;;;;10.80;5.20;;;16.10;99.90;;;;;;5095640;28;20168;-80
2023/06/28 01:58:10;;;;;;;14.98;4.78;;;16.20;99.90;;;;;;5096571;28;20125;-79
2023/06/28 02:00:36;;;;;;;10.75;4.78;;;16.20;99.90;;;;;;5093818;28;20123;-80
2023/06/28 02:03:02;;;;;;;11.20;4.38;;;16.20;99.90;;;;;;5084132;28;20024;-80
2023/06/28 02:05:27;;;;;;;11.30;4.68;;;16.20;99.90;;;;;;5095427;28;20032;-79
2023/06/28 02:07:53;;;;;;;10.73;4.63;;;16.10;99.90;;;;;;5095145;28;20119;-79
2023/06/28 02:10:23;;;;;;;9.82;4.85;;;16.00;99.90;;;;;;5096569;28;20512;-80
2023/06/28 02:12:49;;;;;;;9.88;4.68;;;16.10;99.90;;;;;;5095544;28;20462;-79
2023/06/28 02:15:14;;;;;;;11.77;4.18;;;16.00;99.90;;;;;;5095649;28;20028;-79
2023/06/28 02:17:40;;;;;;;6.30;4.32;;;16.00;99.90;;;;;;5094729;28;20458;-80
2023/06/28 02:20:12;;;;;;;6.70;3.83;;;15.90;99.90;;;;;;5094162;28;20032;-80
2023/06/28 02:22:39;;;;;;;9.00;4.13;;;15.90;99.90;;;;;;5094462;28;20020;-80
2023/06/28 02:25:05;;;;;;;11.27;4.85;;;16.00;99.90;;;;;;5094343;28;20028;-79
2023/06/28 02:27:31;;;;;;;13.40;4.28;;;16.00;99.90;;;;;;5095492;28;20026;-79
2023/06/28 02:29:57;;;;;;;7.00;4.18;;;16.00;99.90;;;;;;5095908;28;20028;-80
2023/06/28 02:32:24;;;;;;;10.05;4.45;;;16.00;99.90;;;;;;5095300;28;20051;-79
2023/06/28 02:34:50;;;;;;;8.60;4.25;;;16.10;99.90;;;;;;5093743;28;20402;-80
2023/06/28 02:37:15;;;;;;;10.75;5.03;;;16.10;99.90;;;;;;5095617;28;20028;-80
2023/06/28 02:39:41;;;;;;;6.80;4.05;;;16.20;99.90;;;;;;5094136;28;20434;-80
2023/06/28 02:42:07;;;;;;;8.98;4.55;;;16.30;99.90;;;;;;5095077;28;20031;-79
2023/06/28 02:44:36;;;;;;;13.65;5.13;;;16.10;99.90;;;;;;5093998;28;20031;-80
2023/06/28 02:47:02;;;;;;;8.00;4.00;;;16.20;99.90;;;;;;5093814;28;20039;-79
2023/06/28 02:49:28;;;;;;;9.70;4.53;;;16.20;99.90;;;;;;5093996;28;20582;-79
2023/06/28 02:51:53;;;;;;;8.07;5.03;;;16.20;99.90;;;;;;5095224;28;20028;-79
2023/06/28 02:54:19;;;;;;;11.27;4.90;;;16.10;99.90;;;;;;5093811;28;20190;-80
2023/06/28 02:56:45;;;;;;;7.70;4.53;;;16.20;99.90;;;;;;5093683;28;20383;-80
2023/06/28 02:59:11;;;;;;;8.93;4.65;;;16.20;99.90;;;;;;5094047;28;20024;-80
2023/06/28 03:01:37;;;;;;;14.98;5.55;;;16.20;99.90;;;;;;5094573;28;20032;-79
2023/06/28 03:04:02;;;;;;;8.20;5.18;;;16.30;99.90;;;;;;5093766;28;20046;-80
2023/06/28 03:06:28;;;;;;;11.90;4.90;;;16.30;99.90;;;;;;5094844;28;20028;-79
2023/06/28 03:08:54;;;;;;;15.50;5.72;;;16.20;99.90;;;;;;5093130;28;20046;-79
2023/06/28 03:11:19;;;;;;;15.85;5.72;;;16.30;99.90;;;;;;5095153;28;20024;-79
2023/06/28 03:13:45;;;;;;;7.95;4.68;;;16.40;99.90;;;;;;5093781;28;20036;-80
2023/06/28 03:16:11;;;;;;;9.82;5.22;;;16.30;99.90;;;;;;5073642;28;20028;-79
2023/06/28 03:18:37;;;;;;;18.33;5.80;;;16.30;99.90;;;;;;5091187;28;20032;-79
2023/06/28 03:21:03;;;;;;;11.27;5.35;;;16.30;99.90;;;;;;5095355;28;20474;-80
2023/06/28 03:23:28;;;;;;;9.60;5.05;;;16.30;99.90;;;;;;5095024;28;20028;-80
2023/06/28 03:25:54;;;;;;;12.45;5.68;;;16.30;99.90;;;;;;5093979;28;20028;-80
2023/06/28 03:28:20;;;;;;;10.98;5.28;;;16.30;99.90;;;;;;5095245;28;20024;-79
2023/06/28 03:30:46;;;;;;;15.45;5.32;;;16.30;99.90;;;;;;5094827;28;20030;-79
2023/06/28 03:33:11;;;;;;;7.95;5.18;;;16.30;99.90;;;;;;5093986;28;20032;-79
2023/06/28 03:35:37;;;;;;;18.35;5.88;;;16.40;99.90;;;;;;5095171;28;20374;-80
2023/06/28 03:38:03;;;;;;;9.88;5.35;;;16.40;99.90;;;;;;5094449;28;20028;-80
2023/06/28 03:40:29;;;;;;;9.60;5.03;;;16.30;99.90;;;;;;5093676;28;20055;-80
2023/06/28 03:42:55;;;;;;;16.50;5.43;;;16.30;99.90;;;;;;5093360;28;20169;-80
2023/06/28 03:45:21;;;;;;;15.38;6.60;;;16.40;99.90;;;;;;5092919;28;20024;-80
2023/06/28 03:47:51;;;;;;;9.65;5.32;;;16.40;99.90;;;;;;5092920;28;20039;-80
2023/06/28 03:50:17;;;;;;;13.10;5.97;;;16.40;99.90;;;;;;5092898;28;20028;-80
2023/06/28 03:52:43;;;;;;;13.02;6.13;;;16.40;99.90;;;;;;5093619;28;20138;-80
2023/06/28 03:55:08;;;;;;;10.38;6.00;;;16.40;99.90;;;;;;5091272;28;20085;-80
2023/06/28 03:57:34;;;;;;;9.93;6.15;;;16.40;99.90;;;;;;5093958;28;20020;-80
2023/06/28 04:00:00;;;;;;;17.42;7.65;;;16.40;99.90;;;;;;5092613;28;20028;-80
2023/06/28 04:02:26;;;;;;;17.10;6.22;;;16.50;99.90;;;;;;5091980;28;20028;-80
2023/06/28 04:04:53;;;;;;;12.02;5.60;;;16.40;99.90;;;;;;5086531;28;20032;-80
2023/06/28 04:07:23;;;;;;;13.65;5.88;;;16.40;99.90;;;;;;5093813;28;20247;-79
2023/06/28 04:09:49;;;;;;;20.27;6.43;;;16.40;99.90;;;;;;5092503;28;20043;-80
2023/06/28 04:12:15;;;;;;;14.88;6.30;;;16.40;99.90;;;;;;5093077;28;20024;-80
2023/06/28 04:14:40;;;;;;;16.67;6.43;;;16.40;99.90;;;;;;5094057;28;20036;-80
2023/06/28 04:17:06;;;;;;;14.00;6.63;;;16.40;99.90;;;;;;5092446;28;20390;-79
2023/06/28 04:19:32;;;;;;;18.23;5.70;;;16.50;99.90;;;;;;5091536;28;20032;-79
2023/06/28 04:21:59;;;;;;;12.52;5.97;;;16.50;99.90;;;;;;5093391;28;20020;-79
2023/06/28 04:24:25;;;;;;;12.55;5.75;;;16.50;99.90;;;;;;5092284;28;20032;-80
2023/06/28 04:26:51;;;;;;;12.98;6.32;;;16.50;99.90;;;;;;5092591;28;20024;-79
2023/06/28 04:29:17;;;;;;;12.93;6.72;;;16.50;99.90;;;;;;5091938;28;20118;-79
2023/06/28 04:31:42;;;;;;;15.95;6.93;;;16.50;99.90;;;;;;5093522;28;20103;-80
2023/06/28 04:34:08;;;;;;;17.02;6.10;;;16.50;99.90;;;;;;5092860;28;20043;-79
2023/06/28 04:36:34;;;;;;;16.05;6.25;;;16.60;99.90;;;;;;5085428;28;20078;-79
2023/06/28 04:39:03;;;;;;;13.23;6.05;;;16.50;99.90;;;;;;5093278;28;20032;-80
2023/06/28 04:41:29;;;;;;;11.15;6.57;;;16.50;99.90;;;;;;5093181;28;20020;-79
2023/06/28 04:43:57;;;;;;;13.50;6.30;;;16.50;99.90;;;;;;5093491;28;20386;-79
2023/06/28 04:46:26;;;;;;;14.82;6.65;;;16.50;99.90;;;;;;5091616;28;20031;-79
2023/06/28 04:48:53;;;;;;;14.60;6.80;;;16.60;99.90;;;;;;5090389;28;20023;-79
2023/06/28 04:51:20;;;;;;;14.55;6.18;;;16.60;99.90;;;;;;5092053;28;21125;-80
2023/06/28 04:53:49;;;;;;;12.98;6.13;;;16.60;99.90;;;;;;5091129;28;20097;-80
2023/06/28 04:56:15;;;;;;;11.82;6.63;;;16.60;99.90;;;;;;5091892;28;20028;-80
2023/06/28 04:58:41;;;;;;;16.05;5.95;;;16.70;99.90;;;;;;5092544;28;20028;-79
2023/06/28 05:01:08;;;;;;;9.98;6.05;;;16.60;99.90;;;;;;5087254;28;20039;-80
2023/06/28 05:03:40;;;;;;;13.32;5.13;;;16.60;99.90;;;;;;5085471;28;20032;-80
2023/06/28 05:06:06;;;;;;;17.92;5.93;;;16.60;99.90;;;;;;5092337;28;20069;-79
2023/06/28 05:08:32;;;;;;;14.30;6.03;;;16.60;99.90;;;;;;5092219;28;20024;-80
2023/06/28 05:10:59;;;;;;;12.32;5.57;;;16.60;99.90;;;;;;5093724;28;20492;-80
2023/06/28 05:13:25;;;;;;;9.30;5.75;;;16.60;99.90;;;;;;5093693;28;20492;-80
2023/06/28 05:15:51;;;;;;;12.35;6.30;;;16.60;99.90;;;;;;5094688;28;20057;-79
2023/06/28 05:18:18;;;;;;;15.48;6.47;;;16.60;99.90;;;;;;5097761;28;20355;-80
2023/06/28 05:20:44;;;;;;;13.10;6.57;;;16.60;99.90;;;;;;5097662;28;20526;-80
2023/06/28 05:23:11;;;;;;;14.73;6.47;;;16.60;99.90;;;;;;5097695;28;20112;-80
2023/06/28 05:25:41;;;;;;;12.10;6.32;;;16.60;99.90;;;;;;5096216;28;20028;-80
2023/06/28 05:28:07;;;;;;;16.08;6.68;;;16.60;99.90;;;;;;5096292;28;20101;-80
2023/06/28 05:30:42;;;;;;;12.18;6.82;;;16.60;99.90;;;;;;5096243;28;20374;-80
2023/06/28 05:33:09;;;;;;;18.85;6.93;;;16.60;99.90;;;;;;5096143;28;20051;-78
2023/06/28 05:35:35;;;;;;;10.00;6.70;;;16.60;99.90;;;;;;5097127;28;20027;-80
2023/06/28 05:38:03;;;;;;;11.27;5.80;;;16.60;99.90;;;;;;5097105;28;20440;-78
2023/06/28 05:40:29;;;;;;;12.52;6.18;;;16.70;99.90;;;;;;5095851;28;20042;-78
2023/06/28 05:42:57;;;;;;;15.20;6.65;;;16.60;99.90;;;;;;5097168;28;20028;-79
2023/06/28 05:45:23;;;;;;;10.32;6.40;;;16.60;99.90;;;;;;5095960;28;20032;-79
2023/06/28 05:47:50;;;;;;;10.13;5.72;;;16.60;99.90;;;;;;5096976;28;20431;-80
2023/06/28 05:50:17;;;;;;;14.73;6.50;;;16.60;99.90;;;;;;5075361;28;20093;-80
2023/06/28 05:52:46;;;;;;;9.63;6.68;;;16.60;99.90;;;;;;5092243;28;20035;-80
2023/06/28 05:55:12;;;;;;;14.82;6.40;;;16.60;99.90;;;;;;5094532;28;20036;-80
2023/06/28 05:57:38;;;;;;;10.65;6.85;;;16.60;99.90;;;;;;5095434;28;20089;-81
2023/06/28 06:00:05;;;;;;;14.38;6.72;;;16.70;99.90;;;;;;5095645;28;20028;-81
2023/06/28 06:02:30;;;;;;;18.70;6.68;;;16.70;99.90;;;;;;5095451;28;20024;-80
2023/06/28 06:04:58;;;;;;;10.93;6.85;;;16.80;99.90;;;;;;5095198;28;20039;-80
2023/06/28 06:07:24;;;;;;;16.25;6.45;;;16.80;99.90;;;;;;5096932;28;20043;-80
2023/06/28 06:09:49;;;;;;;13.63;7.18;;;16.90;99.90;;;;;;5076821;28;20455;-80
2023/06/28 06:12:15;;;;;;;13.85;6.95;;;16.90;99.90;;;;;;5091982;28;20039;-80
2023/06/28 06:14:41;;;;;;;13.65;7.03;;;17.00;99.90;;;;;;5095303;28;20036;-80
2023/06/28 06:17:07;;;;;;;12.88;7.25;;;17.00;99.90;;;;;;5095299;28;20113;-80
2023/06/28 06:19:32;;;;;;;12.73;5.95;;;17.00;99.90;;;;;;5095163;28;20036;-80
2023/06/28 06:21:58;;;;;;;12.52;7.13;;;17.00;99.90;;;;;;5096094;28;20028;-80
2023/06/28 06:24:24;;;;;;;10.32;6.35;;;17.00;99.90;;;;;;5095073;28;20028;-80
2023/06/28 06:26:49;;;;;;;11.93;6.00;;;16.90;99.90;;;;;;5094552;28;20029;-80
2023/06/28 06:29:15;;;;;;;13.63;6.55;;;16.90;99.90;;;;;;5096460;28;20024;-80
2023/06/28 06:31:41;;;;;;;13.93;6.82;;;17.00;99.90;;;;;;5094029;28;20028;-80
2023/06/28 06:34:07;;;;;;;16.27;6.93;;;17.00;99.90;;;;;;5094898;28;20043;-80
2023/06/28 06:36:32;;;;;;;11.63;6.43;;;17.00;99.90;;;;;;5095972;28;20024;-80
2023/06/28 06:38:59;;;;;;;15.32;7.38;;;16.90;99.90;;;;;;5094617;28;20039;-79
2023/06/28 06:41:25;;;;;;;17.50;7.05;;;17.00;99.90;;;;;;5094763;28;20115;-79
2023/06/28 06:43:51;;;;;;;15.82;6.85;;;17.00;99.90;;;;;;5096293;28;20024;-79
2023/06/28 06:46:20;;;;;;;13.80;6.95;;;17.10;99.90;;;;;;5095555;28;20032;-79
2023/06/28 06:48:46;;;;;;;23.30;7.40;;;17.10;99.90;;;;;;5094725;28;20122;-79
2023/06/28 06:51:12;;;;;;;14.75;7.22;;;17.10;99.90;;;;;;5096247;28;20036;-79
2023/06/28 06:53:37;;;;;;;12.13;6.85;;;17.10;99.90;;;;;;5095214;28;20054;-80
2023/06/28 06:56:04;;;;;;;14.23;7.60;;;17.20;99.90;;;;;;5094596;28;20032;-79
2023/06/28 06:58:30;;;;;;;15.50;7.10;;;17.10;99.90;;;;;;5094547;28;20386;-79
2023/06/28 07:00:56;;;;;;;11.75;6.28;;;17.10;99.90;;;;;;5095021;28;20355;-79
2023/06/28 07:03:22;;;;;;;18.00;7.20;;;17.10;99.90;;;;;;5094362;28;20127;-79
2023/06/28 07:05:48;;;;;;;11.73;6.32;;;17.10;99.90;;;;;;5094416;28;20039;-79
2023/06/28 07:08:13;;;;;;;16.75;6.22;;;17.10;99.90;;;;;;5078661;28;20024;-79
2023/06/28 07:10:39;;;;;;;14.25;7.03;;;17.10;99.90;;;;;;5087372;28;20036;-80
2023/06/28 07:13:05;;;;;;;15.55;6.40;;;17.10;99.90;;;;;;5094035;28;20028;-79
2023/06/28 07:15:31;;;;;;;17.73;6.32;;;17.10;99.90;;;;;;5094011;28;20035;-79
2023/06/28 07:17:56;;;;;;;21.13;7.28;;;17.10;99.90;;;;;;5094461;28;20513;-79
2023/06/28 07:20:22;;;;;;;14.73;6.72;;;17.20;99.90;;;;;;5094681;28;20103;-79
2023/06/28 07:22:48;;;;;;;18.13;6.80;;;17.20;99.90;;;;;;5073661;28;20107;-79
2023/06/28 07:25:14;;;;;;;14.07;7.28;;;17.20;99.90;;;;;;5093402;28;20111;-79
2023/06/28 07:27:40;;;;;;;15.23;7.40;;;17.20;99.90;;;;;;5094867;28;20032;-79
2023/06/28 07:30:07;;;;;;;22.05;7.15;;;17.20;99.90;;;;;;5093950;28;20078;-79
2023/06/28 07:32:34;;;;;;;20.55;8.02;;;17.30;99.90;;;;;;5094008;28;20355;-79
2023/06/28 07:35:00;;;;;;;19.48;7.32;;;17.20;99.90;;;;;;5093407;28;20032;-79
2023/06/28 07:37:25;;;;;;;18.15;8.63;;;17.30;99.90;;;;;;5092992;28;20040;-79
2023/06/28 07:39:51;;;;;;;17.40;7.63;;;17.30;99.90;;;;;;5093807;28;20382;-79
2023/06/28 07:42:19;;;;;;;17.00;7.68;;;17.40;99.90;;;;;;5093374;28;20490;-80
2023/06/28 07:44:45;;;;;;;18.65;7.75;;;17.40;99.90;;;;;;5093647;28;20039;-79
2023/06/28 07:47:11;;;;;;;19.30;8.48;;;17.50;99.90;;;;;;5093603;28;20115;-80
2023/06/28 07:49:38;;;;;;;18.00;8.65;;;17.50;99.90;;;;;;5093243;28;20028;-78
2023/06/28 07:52:04;;;;;;;15.75;8.50;;;17.50;99.90;;;;;;5094823;28;20020;-80
2023/06/28 07:54:30;;;;;;;17.83;8.38;;;17.50;99.90;;;;;;5093182;28;20441;-80
2023/06/28 07:56:56;;;;;;;21.30;8.45;;;17.50;99.90;;;;;;5094087;28;20028;-79
2023/06/28 07:59:22;;;;;;;21.98;8.27;;;17.40;99.90;;;;;;5095067;28;20035;-80
2023/06/28 08:01:49;;;;;;;17.95;8.43;;;17.50;99.90;;;;;;5083234;28;20020;-80
2023/06/28 08:04:20;;;;;;;27.23;9.57;;;17.40;99.90;;;;;;5090957;28;20032;-80
2023/06/28 08:06:46;;;;;;;18.38;9.70;;;17.50;99.90;;;;;;5094616;28;20478;-80
2023/06/28 08:09:12;;;;;;;26.48;11.35;;;17.50;99.90;;;;;;5094430;28;20024;-79
2023/06/28 08:11:37;;;;;;;23.23;12.75;;;17.60;99.90;;;;;;5093978;28;20039;-80
2023/06/28 08:14:04;;;;;;;20.58;11.68;;;17.70;99.90;;;;;;5092992;28;20130;-79
2023/06/28 08:16:30;;;;;;;20.08;12.05;;;17.70;99.90;;;;;;5093803;28;20027;-79
2023/06/28 08:18:56;;;;;;;23.48;13.70;;;;;;;;;;5094069;28;20028;-79
2023/06/28 08:21:22;;;;;;;24.80;15.43;;;17.80;99.90;;;;;;5092915;28;20020;-79
2023/06/28 08:23:47;;;;;;;31.55;15.70;;;17.80;99.90;;;;;;5092548;28;20050;-79
2023/06/28 08:26:13;;;;;;;27.95;16.55;;;17.80;99.90;;;;;;5094260;28;20028;-80
2023/06/28 08:28:39;;;;;;;25.92;16.05;;;17.80;99.90;;;;;;5093063;28;20032;-80
2023/06/28 08:31:05;;;;;;;24.90;15.80;;;17.80;99.90;;;;;;5093786;28;20039;-80
2023/06/28 08:33:30;;;;;;;22.17;14.63;;;17.80;99.90;;;;;;5094022;28;20040;-80
2023/06/28 08:35:56;;;;;;;29.27;14.10;;;17.60;99.90;;;;;;5093755;28;20024;-80
2023/06/28 08:38:22;;;;;;;18.52;12.02;;;17.70;99.90;;;;;;5093836;28;20028;-78
2023/06/28 08:40:48;;;;;;;20.23;11.48;;;17.60;99.90;;;;;;5093920;28;20027;-80
2023/06/28 08:43:16;;;;;;;19.13;11.13;;;17.60;99.90;;;;;;5094296;28;20409;-79
2023/06/28 08:45:44;;;;;;;25.83;11.00;;;17.50;99.90;;;;;;5092339;28;20024;-80
2023/06/28 08:48:11;;;;;;;20.58;10.82;;;17.50;99.90;;;;;;5093949;28;20024;-79
2023/06/28 08:50:43;;;;;;;19.25;10.05;;;17.50;99.90;;;;;;5092462;28;20424;-79
2023/06/28 08:53:13;;;;;;;23.85;10.10;;;17.50;99.90;;;;;;5091651;28;20060;-79
2023/06/28 08:55:41;;;;;;;20.75;10.48;;;17.60;99.90;;;;;;5092576;28;20028;-82
2023/06/28 08:58:08;;;;;;;17.35;9.75;;;17.60;99.90;;;;;;5092830;28;20115;-80
2023/06/28 09:00:33;;;;;;;18.55;9.57;;;17.60;99.90;;;;;;5093224;28;20036;-79
2023/06/28 09:03:01;;;;;;;20.33;9.23;;;17.60;99.90;;;;;;5093535;28;20043;-80
2023/06/28 09:05:27;;;;;;;18.08;9.52;;;17.50;99.90;;;;;;5093395;28;20031;-79
2023/06/28 09:07:56;;;;;;;19.48;10.02;;;17.50;99.90;;;;;;5093947;28;20462;-79
2023/06/28 09:10:23;;;;;;;18.38;8.82;;;17.50;99.90;;;;;;5092407;28;20035;-80
2023/06/28 09:12:50;;;;;;;21.73;8.93;;;17.50;99.90;;;;;;5089187;28;20086;-80
2023/06/28 09:15:20;;;;;;;27.90;9.80;;;17.50;99.90;;;;;;5073291;28;20124;-80
2023/06/28 09:17:46;;;;;;;18.80;9.43;;;17.50;99.90;;;;;;5092475;28;20119;-80
2023/06/28 09:20:20;;;;;;;16.33;8.48;;;17.50;99.90;;;;;;5092299;28;20052;-80
2023/06/28 09:22:59;;;;;;;17.58;8.25;;;17.60;99.90;;;;;;5092270;28;20386;-80
2023/06/28 09:25:27;;;;;;;14.63;7.30;;;17.60;99.90;;;;;;5092319;28;20489;-80
2023/06/28 09:27:54;;;;;;;15.25;8.15;;;17.60;99.90;;;;;;5091958;28;20028;-80
2023/06/28 09:30:21;;;;;;;13.85;7.25;;;17.60;99.90;;;;;;5093325;28;20035;-80
2023/06/28 09:32:51;;;;;;;11.60;6.80;;;17.70;99.90;;;;;;5093559;28;20057;-80
2023/06/28 09:35:22;;;;;;;11.15;6.78;;;17.70;99.90;;;;;;5091913;28;20036;-80
2023/06/28 09:37:54;;;;;;;9.85;6.30;;;17.80;99.90;;;;;;5093759;28;20024;-81
2023/06/28 09:40:20;;;;;;;12.27;6.25;;;17.80;99.90;;;;;;5091729;28;20051;-80
2023/06/28 09:42:48;;;;;;;14.88;6.68;;;17.70;99.90;;;;;;5092013;28;20020;-80
2023/06/28 09:45:26;;;;;;;10.30;6.32;;;17.70;99.90;;;;;;5092148;28;20028;-80
2023/06/28 09:47:57;;;;;;;14.88;6.97;;;17.70;99.90;;;;;;5091749;28;20486;-79
2023/06/28 09:50:34;;;;;;;14.30;6.72;;;17.60;99.90;;;;;;5092036;28;20501;-80
2023/06/28 09:52:59;;;;;;;14.57;7.57;;;17.60;99.90;;;;;;5093392;28;20071;-79
2023/06/28 09:55:25;;;;;;;16.08;7.40;;;17.60;99.90;;;;;;5091633;28;20052;-79
2023/06/28 09:57:52;;;;;;;10.25;6.97;;;17.50;99.90;;;;;;5093276;28;20071;-80
2023/06/28 10:00:19;;;;;;;12.02;7.82;;;17.60;99.90;;;;;;5092026;28;20035;-79
2023/06/28 10:02:48;;;;;;;15.75;8.13;;;17.60;99.90;;;;;;5095240;28;20027;-79
2023/06/28 10:05:14;;;;;;;11.82;8.05;;;17.60;99.90;;;;;;5095947;28;20378;-79
2023/06/28 10:07:42;;;;;;;15.82;7.75;;;17.60;99.90;;;;;;5096575;28;20032;-79
2023/06/28 10:10:08;;;;;;;14.57;7.95;;;17.70;99.90;;;;;;5096167;28;20028;-79
2023/06/28 10:12:36;;;;;;;12.48;8.13;;;17.70;99.90;;;;;;5095510;28;20032;-79
2023/06/28 10:15:06;;;;;;;17.02;8.20;;;17.70;99.90;;;;;;5096571;28;20035;-79
2023/06/28 10:17:35;;;;;;;17.80;7.32;;;17.80;99.90;;;;;;5096383;28;20529;-79
2023/06/28 10:20:03;;;;;;;13.57;7.75;;;17.70;99.90;;;;;;5092683;28;20029;-80
2023/06/28 10:22:30;;;;;;;7.93;6.20;;;17.80;99.90;;;;;;5075614;28;20021;-79
2023/06/28 10:24:58;;;;;;;6.32;4.30;;;17.80;99.90;;;;;;5095300;28;20052;-79
2023/06/28 10:27:24;;;;;;;8.93;4.40;;;17.80;99.90;;;;;;5096557;28;20606;-80
2023/06/28 10:29:53;;;;;;;7.10;3.90;;;17.80;99.90;;;;;;5094842;28;20076;-79
2023/06/28 10:32:19;;;;;;;7.80;4.60;;;17.80;99.90;;;;;;5096376;28;20518;-79
2023/06/28 10:34:47;;;;;;;6.03;4.10;;;17.80;99.90;;;;;;5094949;28;20161;-79
2023/06/28 10:37:13;;;;;;;10.05;4.28;;;17.80;99.90;;;;;;5094590;28;20457;-79
2023/06/28 10:39:39;;;;;;;6.68;4.32;;;17.80;99.90;;;;;;5094839;28;20055;-79
2023/06/28 10:42:07;;;;;;;9.35;4.13;;;17.80;99.90;;;;;;5094925;28;20031;-79
2023/06/28 10:44:32;;;;;;;6.07;3.20;;;17.90;99.90;;;;;;5094593;28;20039;-79
2023/06/28 10:47:12;;;;;;;8.55;3.60;;;18.00;99.90;;;;;;5096453;28;20032;-79
2023/06/28 10:49:41;;;;;;;8.52;3.20;;;18.10;99.90;;;;;;5094796;28;20125;-80
2023/06/28 10:52:14;;;;;;;7.32;2.92;;;18.20;99.90;;;;;;5094302;28;20034;-79
2023/06/28 10:54:40;;;;;;;6.00;3.00;;;18.10;99.90;;;;;;5094504;28;20456;-80
2023/06/28 10:57:10;;;;;;;4.57;2.08;;;18.20;99.90;;;;;;5092818;28;20089;-80
2023/06/28 10:59:42;;;;;;;3.95;2.28;;;18.20;99.90;;;;;;5094851;28;20024;-80
2023/06/28 11:02:09;;;;;;;4.50;2.40;;;18.20;99.90;;;;;;5081481;28;20044;-80
2023/06/28 11:04:50;;;;;;;4.28;2.58;;;18.20;99.90;;;;;;5093252;28;20113;-81
2023/06/28 11:07:20;;;;;;;3.08;2.00;;;18.30;99.90;;;;;;5093760;28;20028;-80
2023/06/28 11:10:11;;;;;;;5.47;2.03;;;18.30;99.90;;;;;;5094886;28;20027;-81
2023/06/28 11:12:38;;;;;;;7.63;2.30;;;18.30;99.90;;;;;;5094391;28;20430;-81
2023/06/28 11:15:12;;;;;;;6.25;2.55;;;18.30;99.90;;;;;;5093524;28;20051;-81
2023/06/28 11:17:38;;;;;;;4.82;2.05;;;18.20;99.90;;;;;;5093530;28;20067;-81
2023/06/28 11:20:10;;;;;;;6.93;2.17;;;18.20;99.90;;;;;;5094295;28;20047;-81
2023/06/28 11:22:54;;;;;;;5.75;2.50;;;18.30;99.90;;;;;;5093246;28;20105;-81
2023/06/28 11:25:27;;;;;;;6.68;2.00;;;18.40;99.90;;;;;;5094968;28;20040;-81
2023/06/28 11:27:53;;;;;;;5.57;2.55;;;18.50;99.90;;;;;;5094808;28;20148;-81
2023/06/28 11:30:20;;;;;;;3.40;1.73;;;18.70;99.90;;;;;;5093632;28;20052;-81
2023/06/28 11:32:46;;;;;;;4.72;1.70;;;18.70;99.90;;;;;;5092491;28;20028;-81
2023/06/28 11:35:12;;;;;;;3.10;1.30;;;18.80;99.90;;;;;;5093281;28;20036;-81
2023/06/28 11:37:39;;;;;;;5.68;1.65;;;18.90;99.90;;;;;;5094610;28;20377;-81
2023/06/28 11:40:05;;;;;;;2.70;1.77;;;18.90;99.90;;;;;;5092768;28;20482;-81
2023/06/28 11:42:31;;;;;;;6.38;2.50;;;19.00;99.90;;;;;;5094403;28;20028;-81
2023/06/28 11:44:57;;;;;;;4.50;1.40;;;19.10;99.90;;;;;;5092855;28;20288;-81
2023/06/28 11:47:23;;;;;;;3.95;1.35;;;19.10;99.90;;;;;;5092648;28;20073;-81
2023/06/28 11:49:49;;;;;;;3.78;1.20;;;19.20;99.90;;;;;;5092809;28;20051;-81
2023/06/28 11:52:16;;;;;;;3.38;1.30;;;19.20;99.90;;;;;;5092866;28;20039;-81
2023/06/28 11:54:43;;;;;;;5.00;1.60;;;19.40;99.90;;;;;;5093762;28;20052;-81
2023/06/28 11:57:09;;;;;;;7.43;1.48;;;19.60;99.90;;;;;;5092506;28;20032;-81
2023/06/28 11:59:35;;;;;;;3.70;1.50;;;19.80;99.90;;;;;;5092624;28;20051;-81
2023/06/28 12:02:07;;;;;;;3.83;1.70;;;19.90;99.90;;;;;;5092359;28;20060;-81
2023/06/28 12:04:36;;;;;;;3.88;1.48;;;20.10;99.90;;;;;;5081382;28;20036;-82
2023/06/28 12:07:04;;;;;;;7.97;1.95;;;20.10;99.90;;;;;;5082069;28;20032;-82
2023/06/28 12:09:32;;;;;;;2.67;1.65;;;20.20;99.90;;;;;;5093744;28;20036;-82
2023/06/28 12:12:01;;;;;;;4.05;1.90;;;20.10;99.90;;;;;;5092360;28;20039;-81
2023/06/28 12:14:28;;;;;;;2.92;1.80;;;20.00;99.90;;;;;;5092106;28;20059;-81
2023/06/28 12:16:57;;;;;;;5.93;2.05;;;20.10;99.90;;;;;;5093221;28;20032;-82
2023/06/28 12:19:29;;;;;;;4.47;1.65;;;20.10;99.90;;;;;;5092427;28;20498;-82
2023/06/28 12:21:56;;;;;;;11.82;1.70;;;20.20;99.90;;;;;;5093042;28;20133;-82
2023/06/28 12:24:27;;;;;;;4.95;1.80;;;20.20;99.90;;;;;;5091928;28;20059;-82
2023/06/28 12:26:56;;;;;;;9.53;1.83;;;20.10;99.90;;;;;;5093381;28;20028;-81
2023/06/28 12:29:24;;;;;;;3.08;1.80;;;20.20;99.90;;;;;;5092156;28;20034;-82
2023/06/28 12:31:52;;;;;;;3.00;1.65;;;20.20;99.90;;;;;;5092016;28;20040;-82
2023/06/28 12:34:28;;;;;;;4.43;1.83;;;20.20;99.90;;;;;;5092064;28;20482;-82
2023/06/28 12:37:03;;;;;;;5.47;2.17;;;20.20;99.90;;;;;;5091550;28;20540;-82
2023/06/28 12:39:32;;;;;;;6.30;1.70;;;20.30;99.90;;;;;;5093289;28;20415;-82